sensor_id;sensor_type;location;lat;lon;timestamp;P1;durP1;ratioP1;P2;durP2;ratioP2
53261;SDS011;39658;51.090;-1.786;2023-03-05T00:01:48;14.40;;;7.45;;
53261;SDS011;39658;51.090;-1.786;2023-03-05T00:04:15;16.42;;;7.40;;
53261;SDS011;39658;51.090;-1.786;2023-03-05T00:06:42;15.70;;;7.72;;
53261;SDS011;39658;51.090;-1.786;2023-03-05T00:09:10;17.90;;;7.65;;
53261;SDS011;39658;51.090;-1.786;2023-03-05T00:11:37;15.45;;;7.75;;
53261;SDS011;39658;51.090;-1.786;2023-03-05T00:14:04;19.48;;;8.00;;
53261;SDS011;39658;51.090;-1.786;2023-03-05T00:16:31;15.05;;;7.38;;
53261;SDS011;39658;51.090;-1.786;2023-03-05T00:18:59;24.38;;;8.68;;
53261;SDS011;39658;51.090;-1.786;2023-03-05T00:21:26;17.85;;;7.38;;
53261;SDS011;39658;51.090;-1.786;2023-03-05T00:23:55;18.05;;;7.75;;
53261;SDS011;39658;51.090;-1.786;2023-03-05T00:26:26;21.15;;;9.85;;
53261;SDS011;39658;51.090;-1.786;2023-03-05T00:28:54;17.30;;;8.48;;
53261;SDS011;39658;51.090;-1.786;2023-03-05T00:31:23;19.75;;;9.10;;
53261;SDS011;39658;51.090;-1.786;2023-03-05T00:33:54;18.90;;;8.70;;
53261;SDS011;39658;51.090;-1.786;2023-03-05T00:36:22;18.33;;;8.70;;
53261;SDS011;39658;51.090;-1.786;2023-03-05T00:38:51;20.73;;;9.35;;
53261;SDS011;39658;51.090;-1.786;2023-03-05T00:41:18;20.42;;;8.70;;
53261;SDS011;39658;51.090;-1.786;2023-03-05T00:43:46;28.33;;;8.82;;
53261;SDS011;39658;51.090;-1.786;2023-03-05T00:46:13;21.25;;;9.63;;
53261;SDS011;39658;51.090;-1.786;2023-03-05T00:48:40;19.88;;;9.52;;
53261;SDS011;39658;51.090;-1.786;2023-03-05T00:51:07;24.42;;;10.10;;
53261;SDS011;39658;51.090;-1.786;2023-03-05T00:53:38;19.17;;;8.20;;
53261;SDS011;39658;51.090;-1.786;2023-03-05T00:56:07;20.80;;;8.43;;
53261;SDS011;39658;51.090;-1.786;2023-03-05T00:58:34;23.25;;;8.98;;
53261;SDS011;39658;51.090;-1.786;2023-03-05T01:01:03;25.40;;;9.10;;
53261;SDS011;39658;51.090;-1.786;2023-03-05T01:03:30;18.98;;;9.90;;
53261;SDS011;39658;51.090;-1.786;2023-03-05T01:05:58;27.50;;;10.43;;
53261;SDS011;39658;51.090;-1.786;2023-03-05T01:08:25;20.70;;;8.98;;
53261;SDS011;39658;51.090;-1.786;2023-03-05T01:10:53;17.55;;;7.05;;
53261;SDS011;39658;51.090;-1.786;2023-03-05T01:13:20;23.80;;;10.10;;
53261;SDS011;39658;51.090;-1.786;2023-03-05T01:15:47;22.92;;;8.00;;
53261;SDS011;39658;51.090;-1.786;2023-03-05T01:18:16;19.30;;;9.35;;
53261;SDS011;39658;51.090;-1.786;2023-03-05T01:20:44;21.58;;;10.15;;
53261;SDS011;39658;51.090;-1.786;2023-03-05T01:23:11;21.02;;;9.60;;
53261;SDS011;39658;51.090;-1.786;2023-03-05T01:25:37;19.70;;;8.53;;
53261;SDS011;39658;51.090;-1.786;2023-03-05T01:28:04;18.17;;;9.00;;
53261;SDS011;39658;51.090;-1.786;2023-03-05T01:30:31;18.45;;;8.15;;
53261;SDS011;39658;51.090;-1.786;2023-03-05T01:32:58;20.23;;;9.55;;
53261;SDS011;39658;51.090;-1.786;2023-03-05T01:35:27;21.38;;;10.38;;
53261;SDS011;39658;51.090;-1.786;2023-03-05T01:37:54;22.63;;;10.23;;
53261;SDS011;39658;51.090;-1.786;2023-03-05T01:40:23;21.02;;;9.43;;
53261;SDS011;39658;51.090;-1.786;2023-03-05T01:42:55;20.88;;;10.30;;
53261;SDS011;39658;51.090;-1.786;2023-03-05T01:45:23;21.90;;;10.40;;
53261;SDS011;39658;51.090;-1.786;2023-03-05T01:47:50;23.17;;;10.00;;
53261;SDS011;39658;51.090;-1.786;2023-03-05T01:50:19;18.77;;;9.52;;
53261;SDS011;39658;51.090;-1.786;2023-03-05T01:52:52;20.13;;;8.60;;
53261;SDS011;39658;51.090;-1.786;2023-03-05T01:55:24;20.00;;;9.07;;
53261;SDS011;39658;51.090;-1.786;2023-03-05T01:57:54;18.25;;;9.43;;
53261;SDS011;39658;51.090;-1.786;2023-03-05T02:00:24;20.85;;;9.40;;
53261;SDS011;39658;51.090;-1.786;2023-03-05T02:02:53;20.02;;;9.30;;
53261;SDS011;39658;51.090;-1.786;2023-03-05T02:05:23;22.10;;;9.25;;
53261;SDS011;39658;51.090;-1.786;2023-03-05T02:07:55;20.50;;;10.63;;
53261;SDS011;39658;51.090;-1.786;2023-03-05T02:10:23;24.42;;;9.80;;
53261;SDS011;39658;51.090;-1.786;2023-03-05T02:12:52;22.00;;;9.07;;
53261;SDS011;39658;51.090;-1.786;2023-03-05T02:15:21;22.13;;;8.75;;
53261;SDS011;39658;51.090;-1.786;2023-03-05T02:17:48;22.65;;;9.82;;
53261;SDS011;39658;51.090;-1.786;2023-03-05T02:20:15;18.77;;;9.23;;
53261;SDS011;39658;51.090;-1.786;2023-03-05T02:22:45;20.67;;;9.07;;
53261;SDS011;39658;51.090;-1.786;2023-03-05T02:25:13;20.25;;;8.32;;
53261;SDS011;39658;51.090;-1.786;2023-03-05T02:27:45;16.15;;;8.95;;
53261;SDS011;39658;51.090;-1.786;2023-03-05T02:30:17;17.08;;;8.73;;
53261;SDS011;39658;51.090;-1.786;2023-03-05T02:32:44;19.10;;;9.13;;
53261;SDS011;39658;51.090;-1.786;2023-03-05T02:35:11;18.55;;;7.85;;
53261;SDS011;39658;51.090;-1.786;2023-03-05T02:37:38;17.33;;;8.05;;
53261;SDS011;39658;51.090;-1.786;2023-03-05T02:40:07;19.17;;;8.43;;
53261;SDS011;39658;51.090;-1.786;2023-03-05T02:42:34;18.00;;;8.52;;
53261;SDS011;39658;51.090;-1.786;2023-03-05T02:45:02;16.88;;;8.30;;
53261;SDS011;39658;51.090;-1.786;2023-03-05T02:47:29;20.08;;;9.10;;
53261;SDS011;39658;51.090;-1.786;2023-03-05T02:49:56;18.70;;;8.35;;
53261;SDS011;39658;51.090;-1.786;2023-03-05T02:52:23;17.77;;;8.77;;
53261;SDS011;39658;51.090;-1.786;2023-03-05T02:54:49;19.83;;;7.70;;
53261;SDS011;39658;51.090;-1.786;2023-03-05T02:57:18;15.15;;;8.35;;
53261;SDS011;39658;51.090;-1.786;2023-03-05T02:59:45;12.65;;;7.70;;
53261;SDS011;39658;51.090;-1.786;2023-03-05T03:02:13;16.00;;;8.13;;
53261;SDS011;39658;51.090;-1.786;2023-03-05T03:04:41;16.30;;;6.95;;
53261;SDS011;39658;51.090;-1.786;2023-03-05T03:07:07;13.57;;;6.50;;
53261;SDS011;39658;51.090;-1.786;2023-03-05T03:09:34;20.08;;;8.40;;
53261;SDS011;39658;51.090;-1.786;2023-03-05T03:12:01;19.02;;;7.80;;
53261;SDS011;39658;51.090;-1.786;2023-03-05T03:14:31;16.85;;;7.50;;
53261;SDS011;39658;51.090;-1.786;2023-03-05T03:17:01;17.15;;;7.57;;
53261;SDS011;39658;51.090;-1.786;2023-03-05T03:19:28;16.98;;;8.45;;
53261;SDS011;39658;51.090;-1.786;2023-03-05T03:21:55;16.42;;;7.28;;
53261;SDS011;39658;51.090;-1.786;2023-03-05T03:24:22;14.50;;;7.20;;
53261;SDS011;39658;51.090;-1.786;2023-03-05T03:26:48;16.40;;;8.43;;
53261;SDS011;39658;51.090;-1.786;2023-03-05T03:29:15;18.45;;;7.88;;
53261;SDS011;39658;51.090;-1.786;2023-03-05T03:31:43;17.92;;;6.95;;
53261;SDS011;39658;51.090;-1.786;2023-03-05T03:34:10;15.80;;;8.18;;
53261;SDS011;39658;51.090;-1.786;2023-03-05T03:36:39;19.15;;;8.98;;
53261;SDS011;39658;51.090;-1.786;2023-03-05T03:39:05;14.57;;;8.40;;
53261;SDS011;39658;51.090;-1.786;2023-03-05T03:41:34;18.15;;;7.88;;
53261;SDS011;39658;51.090;-1.786;2023-03-05T03:44:01;19.08;;;8.90;;
53261;SDS011;39658;51.090;-1.786;2023-03-05T03:46:29;17.67;;;8.10;;
53261;SDS011;39658;51.090;-1.786;2023-03-05T03:48:57;16.75;;;8.10;;
53261;SDS011;39658;51.090;-1.786;2023-03-05T03:51:24;18.35;;;7.63;;
53261;SDS011;39658;51.090;-1.786;2023-03-05T03:53:50;16.58;;;8.00;;
53261;SDS011;39658;51.090;-1.786;2023-03-05T03:56:17;17.67;;;7.40;;
53261;SDS011;39658;51.090;-1.786;2023-03-05T03:58:44;18.20;;;7.13;;
53261;SDS011;39658;51.090;-1.786;2023-03-05T04:01:11;17.73;;;8.13;;
53261;SDS011;39658;51.090;-1.786;2023-03-05T04:03:38;17.50;;;8.10;;
53261;SDS011;39658;51.090;-1.786;2023-03-05T04:06:06;16.60;;;7.90;;
53261;SDS011;39658;51.090;-1.786;2023-03-05T04:08:33;16.88;;;8.60;;
53261;SDS011;39658;51.090;-1.786;2023-03-05T04:11:00;21.45;;;8.27;;
53261;SDS011;39658;51.090;-1.786;2023-03-05T04:13:27;14.77;;;7.85;;
53261;SDS011;39658;51.090;-1.786;2023-03-05T04:15:54;15.45;;;7.38;;
53261;SDS011;39658;51.090;-1.786;2023-03-05T04:18:21;15.38;;;7.90;;
53261;SDS011;39658;51.090;-1.786;2023-03-05T04:20:48;14.70;;;6.25;;
53261;SDS011;39658;51.090;-1.786;2023-03-05T04:23:17;13.85;;;7.25;;
53261;SDS011;39658;51.090;-1.786;2023-03-05T04:25:44;15.05;;;6.60;;
53261;SDS011;39658;51.090;-1.786;2023-03-05T04:28:10;12.68;;;6.53;;
53261;SDS011;39658;51.090;-1.786;2023-03-05T04:30:37;14.32;;;5.72;;
53261;SDS011;39658;51.090;-1.786;2023-03-05T04:33:04;15.07;;;7.63;;
53261;SDS011;39658;51.090;-1.786;2023-03-05T04:35:31;16.48;;;7.65;;
53261;SDS011;39658;51.090;-1.786;2023-03-05T04:37:58;15.07;;;7.10;;
53261;SDS011;39658;51.090;-1.786;2023-03-05T04:40:26;17.58;;;7.10;;
53261;SDS011;39658;51.090;-1.786;2023-03-05T04:42:52;14.43;;;7.85;;
53261;SDS011;39658;51.090;-1.786;2023-03-05T04:45:19;13.77;;;6.38;;
53261;SDS011;39658;51.090;-1.786;2023-03-05T04:47:46;17.15;;;7.20;;
53261;SDS011;39658;51.090;-1.786;2023-03-05T04:50:13;13.02;;;6.75;;
53261;SDS011;39658;51.090;-1.786;2023-03-05T04:52:40;13.57;;;6.95;;
53261;SDS011;39658;51.090;-1.786;2023-03-05T04:55:09;15.93;;;7.60;;
53261;SDS011;39658;51.090;-1.786;2023-03-05T04:57:38;17.83;;;7.93;;
53261;SDS011;39658;51.090;-1.786;2023-03-05T05:00:06;17.42;;;7.97;;
53261;SDS011;39658;51.090;-1.786;2023-03-05T05:02:38;15.25;;;7.38;;
53261;SDS011;39658;51.090;-1.786;2023-03-05T05:05:05;16.17;;;8.68;;
53261;SDS011;39658;51.090;-1.786;2023-03-05T05:07:32;15.17;;;6.77;;
53261;SDS011;39658;51.090;-1.786;2023-03-05T05:09:59;18.42;;;9.50;;
53261;SDS011;39658;51.090;-1.786;2023-03-05T05:12:27;18.95;;;8.82;;
53261;SDS011;39658;51.090;-1.786;2023-03-05T05:14:56;16.65;;;10.05;;
53261;SDS011;39658;51.090;-1.786;2023-03-05T05:17:23;17.67;;;8.30;;
53261;SDS011;39658;51.090;-1.786;2023-03-05T05:19:50;21.80;;;10.57;;
53261;SDS011;39658;51.090;-1.786;2023-03-05T05:22:16;16.52;;;8.35;;
53261;SDS011;39658;51.090;-1.786;2023-03-05T05:24:43;17.85;;;8.88;;
53261;SDS011;39658;51.090;-1.786;2023-03-05T05:27:10;19.73;;;9.55;;
53261;SDS011;39658;51.090;-1.786;2023-03-05T05:29:37;17.20;;;9.27;;
53261;SDS011;39658;51.090;-1.786;2023-03-05T05:32:05;18.33;;;8.10;;
53261;SDS011;39658;51.090;-1.786;2023-03-05T05:34:32;18.80;;;7.63;;
53261;SDS011;39658;51.090;-1.786;2023-03-05T05:36:59;19.60;;;9.90;;
53261;SDS011;39658;51.090;-1.786;2023-03-05T05:39:26;16.02;;;8.20;;
53261;SDS011;39658;51.090;-1.786;2023-03-05T05:41:53;17.52;;;9.05;;
53261;SDS011;39658;51.090;-1.786;2023-03-05T05:44:20;20.65;;;7.72;;
53261;SDS011;39658;51.090;-1.786;2023-03-05T05:46:46;18.85;;;9.73;;
53261;SDS011;39658;51.090;-1.786;2023-03-05T05:49:14;19.05;;;8.35;;
53261;SDS011;39658;51.090;-1.786;2023-03-05T05:51:41;18.38;;;7.95;;
53261;SDS011;39658;51.090;-1.786;2023-03-05T05:54:09;18.77;;;9.02;;
53261;SDS011;39658;51.090;-1.786;2023-03-05T05:56:37;17.58;;;7.90;;
53261;SDS011;39658;51.090;-1.786;2023-03-05T05:59:04;18.88;;;9.02;;
53261;SDS011;39658;51.090;-1.786;2023-03-05T06:01:32;23.40;;;9.38;;
53261;SDS011;39658;51.090;-1.786;2023-03-05T06:03:59;20.90;;;9.18;;
53261;SDS011;39658;51.090;-1.786;2023-03-05T06:06:28;19.58;;;8.93;;
53261;SDS011;39658;51.090;-1.786;2023-03-05T06:08:55;17.40;;;7.90;;
53261;SDS011;39658;51.090;-1.786;2023-03-05T06:11:22;15.87;;;7.73;;
53261;SDS011;39658;51.090;-1.786;2023-03-05T06:13:49;18.90;;;8.25;;
53261;SDS011;39658;51.090;-1.786;2023-03-05T06:16:17;18.45;;;9.38;;
53261;SDS011;39658;51.090;-1.786;2023-03-05T06:18:45;21.00;;;9.52;;
53261;SDS011;39658;51.090;-1.786;2023-03-05T06:21:13;21.90;;;10.00;;
53261;SDS011;39658;51.090;-1.786;2023-03-05T06:23:43;21.42;;;10.32;;
53261;SDS011;39658;51.090;-1.786;2023-03-05T06:26:11;23.30;;;11.70;;
53261;SDS011;39658;51.090;-1.786;2023-03-05T06:28:41;18.77;;;7.97;;
53261;SDS011;39658;51.090;-1.786;2023-03-05T06:31:08;17.25;;;9.40;;
53261;SDS011;39658;51.090;-1.786;2023-03-05T06:33:36;20.27;;;8.25;;
53261;SDS011;39658;51.090;-1.786;2023-03-05T06:36:03;20.45;;;9.70;;
53261;SDS011;39658;51.090;-1.786;2023-03-05T06:38:32;17.00;;;8.82;;
53261;SDS011;39658;51.090;-1.786;2023-03-05T06:41:01;17.42;;;8.93;;
53261;SDS011;39658;51.090;-1.786;2023-03-05T06:43:29;19.95;;;9.32;;
53261;SDS011;39658;51.090;-1.786;2023-03-05T06:46:00;30.50;;;9.43;;
53261;SDS011;39658;51.090;-1.786;2023-03-05T06:48:28;25.77;;;10.30;;
53261;SDS011;39658;51.090;-1.786;2023-03-05T06:50:55;19.05;;;8.75;;
53261;SDS011;39658;51.090;-1.786;2023-03-05T06:53:22;21.60;;;9.07;;
53261;SDS011;39658;51.090;-1.786;2023-03-05T06:55:49;28.27;;;10.23;;
53261;SDS011;39658;51.090;-1.786;2023-03-05T06:58:17;19.02;;;9.18;;
53261;SDS011;39658;51.090;-1.786;2023-03-05T07:00:44;19.70;;;9.68;;
53261;SDS011;39658;51.090;-1.786;2023-03-05T07:03:11;17.08;;;8.43;;
53261;SDS011;39658;51.090;-1.786;2023-03-05T07:05:38;18.90;;;8.93;;
53261;SDS011;39658;51.090;-1.786;2023-03-05T07:08:06;21.65;;;10.27;;
53261;SDS011;39658;51.090;-1.786;2023-03-05T07:10:36;17.00;;;8.10;;
53261;SDS011;39658;51.090;-1.786;2023-03-05T07:13:03;25.17;;;9.98;;
53261;SDS011;39658;51.090;-1.786;2023-03-05T07:15:31;23.77;;;10.15;;
53261;SDS011;39658;51.090;-1.786;2023-03-05T07:17:58;23.60;;;9.57;;
53261;SDS011;39658;51.090;-1.786;2023-03-05T07:20:25;22.07;;;11.10;;
53261;SDS011;39658;51.090;-1.786;2023-03-05T07:22:53;24.67;;;9.43;;
53261;SDS011;39658;51.090;-1.786;2023-03-05T07:25:20;21.10;;;11.25;;
53261;SDS011;39658;51.090;-1.786;2023-03-05T07:27:48;23.02;;;10.80;;
53261;SDS011;39658;51.090;-1.786;2023-03-05T07:30:15;24.08;;;11.75;;
53261;SDS011;39658;51.090;-1.786;2023-03-05T07:32:44;32.58;;;13.48;;
53261;SDS011;39658;51.090;-1.786;2023-03-05T07:35:11;24.52;;;10.82;;
53261;SDS011;39658;51.090;-1.786;2023-03-05T07:37:37;27.60;;;12.57;;
53261;SDS011;39658;51.090;-1.786;2023-03-05T07:40:04;27.88;;;10.88;;
53261;SDS011;39658;51.090;-1.786;2023-03-05T07:42:33;31.17;;;12.48;;
53261;SDS011;39658;51.090;-1.786;2023-03-05T07:45:00;23.13;;;11.00;;
53261;SDS011;39658;51.090;-1.786;2023-03-05T07:47:26;25.25;;;12.45;;
53261;SDS011;39658;51.090;-1.786;2023-03-05T07:49:56;24.27;;;11.73;;
53261;SDS011;39658;51.090;-1.786;2023-03-05T07:52:22;27.40;;;12.52;;
53261;SDS011;39658;51.090;-1.786;2023-03-05T07:54:49;32.58;;;12.43;;
53261;SDS011;39658;51.090;-1.786;2023-03-05T07:57:16;28.83;;;11.07;;
53261;SDS011;39658;51.090;-1.786;2023-03-05T07:59:43;25.33;;;10.88;;
53261;SDS011;39658;51.090;-1.786;2023-03-05T08:02:10;27.67;;;12.40;;
53261;SDS011;39658;51.090;-1.786;2023-03-05T08:04:37;23.98;;;12.25;;
53261;SDS011;39658;51.090;-1.786;2023-03-05T08:07:05;28.98;;;12.02;;
53261;SDS011;39658;51.090;-1.786;2023-03-05T08:09:32;29.70;;;11.88;;
53261;SDS011;39658;51.090;-1.786;2023-03-05T08:11:59;28.83;;;12.15;;
53261;SDS011;39658;51.090;-1.786;2023-03-05T08:14:26;29.17;;;13.10;;
53261;SDS011;39658;51.090;-1.786;2023-03-05T08:16:53;27.98;;;11.00;;
53261;SDS011;39658;51.090;-1.786;2023-03-05T08:19:20;26.38;;;12.65;;
53261;SDS011;39658;51.090;-1.786;2023-03-05T08:21:47;24.50;;;10.45;;
53261;SDS011;39658;51.090;-1.786;2023-03-05T08:24:15;22.90;;;9.77;;
53261;SDS011;39658;51.090;-1.786;2023-03-05T08:26:42;20.75;;;8.45;;
53261;SDS011;39658;51.090;-1.786;2023-03-05T08:29:09;25.73;;;9.30;;
53261;SDS011;39658;51.090;-1.786;2023-03-05T08:31:36;20.02;;;9.05;;
53261;SDS011;39658;51.090;-1.786;2023-03-05T08:34:04;18.77;;;8.43;;
53261;SDS011;39658;51.090;-1.786;2023-03-05T08:36:31;13.45;;;6.65;;
53261;SDS011;39658;51.090;-1.786;2023-03-05T08:38:58;14.45;;;6.47;;
53261;SDS011;39658;51.090;-1.786;2023-03-05T08:41:26;15.68;;;6.75;;
53261;SDS011;39658;51.090;-1.786;2023-03-05T08:43:53;12.95;;;7.20;;
53261;SDS011;39658;51.090;-1.786;2023-03-05T08:46:20;15.80;;;7.07;;
53261;SDS011;39658;51.090;-1.786;2023-03-05T08:48:47;16.60;;;6.70;;
53261;SDS011;39658;51.090;-1.786;2023-03-05T08:51:15;14.05;;;5.00;;
53261;SDS011;39658;51.090;-1.786;2023-03-05T08:53:43;13.07;;;5.47;;
53261;SDS011;39658;51.090;-1.786;2023-03-05T08:56:11;8.77;;;5.20;;
53261;SDS011;39658;51.090;-1.786;2023-03-05T08:58:40;10.18;;;5.60;;
53261;SDS011;39658;51.090;-1.786;2023-03-05T09:01:06;11.50;;;4.95;;
53261;SDS011;39658;51.090;-1.786;2023-03-05T09:03:33;10.63;;;4.95;;
53261;SDS011;39658;51.090;-1.786;2023-03-05T09:06:00;10.63;;;5.28;;
53261;SDS011;39658;51.090;-1.786;2023-03-05T09:08:28;7.53;;;3.78;;
53261;SDS011;39658;51.090;-1.786;2023-03-05T09:10:55;9.70;;;4.15;;
53261;SDS011;39658;51.090;-1.786;2023-03-05T09:13:22;7.40;;;4.38;;
53261;SDS011;39658;51.090;-1.786;2023-03-05T09:15:54;9.25;;;3.30;;
53261;SDS011;39658;51.090;-1.786;2023-03-05T09:18:21;7.15;;;3.72;;
53261;SDS011;39658;51.090;-1.786;2023-03-05T09:20:48;10.05;;;3.85;;
53261;SDS011;39658;51.090;-1.786;2023-03-05T09:23:15;7.57;;;4.03;;
53261;SDS011;39658;51.090;-1.786;2023-03-05T09:25:42;7.45;;;3.15;;
53261;SDS011;39658;51.090;-1.786;2023-03-05T09:28:08;8.75;;;3.72;;
53261;SDS011;39658;51.090;-1.786;2023-03-05T09:30:35;7.55;;;2.95;;
53261;SDS011;39658;51.090;-1.786;2023-03-05T09:33:04;7.00;;;3.13;;
53261;SDS011;39658;51.090;-1.786;2023-03-05T09:35:33;7.45;;;3.67;;
53261;SDS011;39658;51.090;-1.786;2023-03-05T09:38:00;9.57;;;3.20;;
53261;SDS011;39658;51.090;-1.786;2023-03-05T09:40:29;7.76;;;3.20;;
53261;SDS011;39658;51.090;-1.786;2023-03-05T09:43:10;7.03;;;3.80;;
53261;SDS011;39658;51.090;-1.786;2023-03-05T09:45:56;7.78;;;4.40;;
53261;SDS011;39658;51.090;-1.786;2023-03-05T09:48:37;9.63;;;4.22;;
53261;SDS011;39658;51.090;-1.786;2023-03-05T09:51:15;7.40;;;4.07;;
53261;SDS011;39658;51.090;-1.786;2023-03-05T09:53:46;11.38;;;4.07;;
53261;SDS011;39658;51.090;-1.786;2023-03-05T09:56:18;9.02;;;4.57;;
53261;SDS011;39658;51.090;-1.786;2023-03-05T09:58:48;6.65;;;4.20;;
53261;SDS011;39658;51.090;-1.786;2023-03-05T10:01:18;12.18;;;3.75;;
53261;SDS011;39658;51.090;-1.786;2023-03-05T10:03:50;8.80;;;4.45;;
53261;SDS011;39658;51.090;-1.786;2023-03-05T10:06:22;7.65;;;4.35;;
53261;SDS011;39658;51.090;-1.786;2023-03-05T10:08:52;10.73;;;4.90;;
53261;SDS011;39658;51.090;-1.786;2023-03-05T10:11:39;12.35;;;4.45;;
53261;SDS011;39658;51.090;-1.786;2023-03-05T10:16:42;9.68;;;4.15;;
53261;SDS011;39658;51.090;-1.786;2023-03-05T10:19:35;8.32;;;4.20;;
53261;SDS011;39658;51.090;-1.786;2023-03-05T10:22:13;10.10;;;3.97;;
53261;SDS011;39658;51.090;-1.786;2023-03-05T10:24:49;9.20;;;3.72;;
53261;SDS011;39658;51.090;-1.786;2023-03-05T10:27:30;7.65;;;4.35;;
53261;SDS011;39658;51.090;-1.786;2023-03-05T10:30:07;9.95;;;4.53;;
53261;SDS011;39658;51.090;-1.786;2023-03-05T10:32:55;6.85;;;4.38;;
53261;SDS011;39658;51.090;-1.786;2023-03-05T10:35:41;9.43;;;3.80;;
53261;SDS011;39658;51.090;-1.786;2023-03-05T10:38:22;8.85;;;4.22;;
53261;SDS011;39658;51.090;-1.786;2023-03-05T10:41:06;9.98;;;4.10;;
53261;SDS011;39658;51.090;-1.786;2023-03-05T10:43:40;7.18;;;4.18;;
53261;SDS011;39658;51.090;-1.786;2023-03-05T10:46:18;11.65;;;4.35;;
53261;SDS011;39658;51.090;-1.786;2023-03-05T10:51:18;7.97;;;4.15;;
53261;SDS011;39658;51.090;-1.786;2023-03-05T10:53:50;7.95;;;3.85;;
53261;SDS011;39658;51.090;-1.786;2023-03-05T10:56:21;7.18;;;4.55;;
53261;SDS011;39658;51.090;-1.786;2023-03-05T10:58:49;6.50;;;3.45;;
53261;SDS011;39658;51.090;-1.786;2023-03-05T11:01:21;8.95;;;4.38;;
53261;SDS011;39658;51.090;-1.786;2023-03-05T11:03:50;6.88;;;4.32;;
53261;SDS011;39658;51.090;-1.786;2023-03-05T11:08:55;6.30;;;3.30;;
53261;SDS011;39658;51.090;-1.786;2023-03-05T11:11:34;5.78;;;2.85;;
53261;SDS011;39658;51.090;-1.786;2023-03-05T11:14:01;7.30;;;3.88;;
53261;SDS011;39658;51.090;-1.786;2023-03-05T11:16:29;7.18;;;3.60;;
53261;SDS011;39658;51.090;-1.786;2023-03-05T11:19:11;6.80;;;3.60;;
53261;SDS011;39658;51.090;-1.786;2023-03-05T11:22:03;7.13;;;4.28;;
53261;SDS011;39658;51.090;-1.786;2023-03-05T11:24:31;9.50;;;4.05;;
53261;SDS011;39658;51.090;-1.786;2023-03-05T11:26:59;6.05;;;3.10;;
53261;SDS011;39658;51.090;-1.786;2023-03-05T11:29:26;6.68;;;3.35;;
53261;SDS011;39658;51.090;-1.786;2023-03-05T11:31:55;8.60;;;3.42;;
53261;SDS011;39658;51.090;-1.786;2023-03-05T11:34:39;7.13;;;3.58;;
53261;SDS011;39658;51.090;-1.786;2023-03-05T11:37:09;7.78;;;4.05;;
53261;SDS011;39658;51.090;-1.786;2023-03-05T11:39:47;10.57;;;4.13;;
53261;SDS011;39658;51.090;-1.786;2023-03-05T11:42:15;6.70;;;3.20;;
53261;SDS011;39658;51.090;-1.786;2023-03-05T11:44:49;11.05;;;4.28;;
53261;SDS011;39658;51.090;-1.786;2023-03-05T11:47:22;8.73;;;4.10;;
53261;SDS011;39658;51.090;-1.786;2023-03-05T11:49:54;8.18;;;4.47;;
53261;SDS011;39658;51.090;-1.786;2023-03-05T11:52:29;6.80;;;3.90;;
53261;SDS011;39658;51.090;-1.786;2023-03-05T11:55:12;7.63;;;4.63;;
53261;SDS011;39658;51.090;-1.786;2023-03-05T11:57:42;9.63;;;3.80;;
53261;SDS011;39658;51.090;-1.786;2023-03-05T12:00:15;7.25;;;3.60;;
53261;SDS011;39658;51.090;-1.786;2023-03-05T12:02:44;6.68;;;3.30;;
53261;SDS011;39658;51.090;-1.786;2023-03-05T12:05:15;9.77;;;3.90;;
53261;SDS011;39658;51.090;-1.786;2023-03-05T12:07:45;12.00;;;3.15;;
53261;SDS011;39658;51.090;-1.786;2023-03-05T12:10:15;7.43;;;3.70;;
53261;SDS011;39658;51.090;-1.786;2023-03-05T12:12:46;6.35;;;3.15;;
53261;SDS011;39658;51.090;-1.786;2023-03-05T12:15:24;8.45;;;3.35;;
53261;SDS011;39658;51.090;-1.786;2023-03-05T12:18:02;6.18;;;3.22;;
53261;SDS011;39658;51.090;-1.786;2023-03-05T12:20:39;6.03;;;3.10;;
53261;SDS011;39658;51.090;-1.786;2023-03-05T12:23:14;7.38;;;2.95;;
53261;SDS011;39658;51.090;-1.786;2023-03-05T12:25:44;6.90;;;3.80;;
53261;SDS011;39658;51.090;-1.786;2023-03-05T12:28:13;8.60;;;3.53;;
53261;SDS011;39658;51.090;-1.786;2023-03-05T12:30:57;7.03;;;3.50;;
53261;SDS011;39658;51.090;-1.786;2023-03-05T12:33:29;7.20;;;3.90;;
53261;SDS011;39658;51.090;-1.786;2023-03-05T12:45:23;8.82;;;3.53;;
53261;SDS011;39658;51.090;-1.786;2023-03-05T12:50:54;5.90;;;2.65;;
53261;SDS011;39658;51.090;-1.786;2023-03-05T12:53:23;6.68;;;3.65;;
53261;SDS011;39658;51.090;-1.786;2023-03-05T12:55:53;6.03;;;2.78;;
53261;SDS011;39658;51.090;-1.786;2023-03-05T12:58:36;5.32;;;3.10;;
53261;SDS011;39658;51.090;-1.786;2023-03-05T13:01:11;7.00;;;3.15;;
53261;SDS011;39658;51.090;-1.786;2023-03-05T13:03:46;6.40;;;3.00;;
53261;SDS011;39658;51.090;-1.786;2023-03-05T13:06:22;6.70;;;3.70;;
53261;SDS011;39658;51.090;-1.786;2023-03-05T13:08:54;5.32;;;3.50;;
53261;SDS011;39658;51.090;-1.786;2023-03-05T13:11:22;5.20;;;2.50;;
53261;SDS011;39658;51.090;-1.786;2023-03-05T13:13:50;7.80;;;3.05;;
53261;SDS011;39658;51.090;-1.786;2023-03-05T13:16:19;6.03;;;3.35;;
53261;SDS011;39658;51.090;-1.786;2023-03-05T13:18:49;6.63;;;3.35;;
53261;SDS011;39658;51.090;-1.786;2023-03-05T13:21:18;5.28;;;3.38;;
53261;SDS011;39658;51.090;-1.786;2023-03-05T13:23:46;7.30;;;3.22;;
53261;SDS011;39658;51.090;-1.786;2023-03-05T13:26:21;9.95;;;4.07;;
53261;SDS011;39658;51.090;-1.786;2023-03-05T13:29:05;6.40;;;3.83;;
53261;SDS011;39658;51.090;-1.786;2023-03-05T13:31:36;6.22;;;3.00;;
53261;SDS011;39658;51.090;-1.786;2023-03-05T13:34:09;7.05;;;2.78;;
53261;SDS011;39658;51.090;-1.786;2023-03-05T13:36:44;6.32;;;2.85;;
53261;SDS011;39658;51.090;-1.786;2023-03-05T13:39:18;5.85;;;3.55;;
53261;SDS011;39658;51.090;-1.786;2023-03-05T13:41:56;9.90;;;3.05;;
53261;SDS011;39658;51.090;-1.786;2023-03-05T13:44:26;7.50;;;3.50;;
53261;SDS011;39658;51.090;-1.786;2023-03-05T13:47:04;6.50;;;3.08;;
53261;SDS011;39658;51.090;-1.786;2023-03-05T13:49:32;6.68;;;2.83;;
53261;SDS011;39658;51.090;-1.786;2023-03-05T13:51:59;8.82;;;3.20;;
53261;SDS011;39658;51.090;-1.786;2023-03-05T13:54:27;7.68;;;3.22;;
53261;SDS011;39658;51.090;-1.786;2023-03-05T13:56:55;7.07;;;3.55;;
53261;SDS011;39658;51.090;-1.786;2023-03-05T13:59:24;8.52;;;3.05;;
53261;SDS011;39658;51.090;-1.786;2023-03-05T14:01:54;7.95;;;3.38;;
53261;SDS011;39658;51.090;-1.786;2023-03-05T14:04:22;7.32;;;3.10;;
53261;SDS011;39658;51.090;-1.786;2023-03-05T14:06:52;6.90;;;3.95;;
53261;SDS011;39658;51.090;-1.786;2023-03-05T14:09:23;6.18;;;3.10;;
53261;SDS011;39658;51.090;-1.786;2023-03-05T14:11:51;7.50;;;3.25;;
53261;SDS011;39658;51.090;-1.786;2023-03-05T14:14:20;8.55;;;4.22;;
53261;SDS011;39658;51.090;-1.786;2023-03-05T14:16:49;8.30;;;3.53;;
53261;SDS011;39658;51.090;-1.786;2023-03-05T14:19:34;8.77;;;4.35;;
53261;SDS011;39658;51.090;-1.786;2023-03-05T14:22:02;12.90;;;4.45;;
53261;SDS011;39658;51.090;-1.786;2023-03-05T14:24:29;9.35;;;3.90;;
53261;SDS011;39658;51.090;-1.786;2023-03-05T14:26:58;7.20;;;3.75;;
53261;SDS011;39658;51.090;-1.786;2023-03-05T14:29:29;6.50;;;3.30;;
53261;SDS011;39658;51.090;-1.786;2023-03-05T14:31:59;7.55;;;3.70;;
53261;SDS011;39658;51.090;-1.786;2023-03-05T14:34:29;9.43;;;3.88;;
53261;SDS011;39658;51.090;-1.786;2023-03-05T14:36:59;7.30;;;3.20;;
53261;SDS011;39658;51.090;-1.786;2023-03-05T14:39:31;8.38;;;3.38;;
53261;SDS011;39658;51.090;-1.786;2023-03-05T14:44:57;6.38;;;3.05;;
53261;SDS011;39658;51.090;-1.786;2023-03-05T14:47:26;7.80;;;3.30;;
53261;SDS011;39658;51.090;-1.786;2023-03-05T14:49:55;8.15;;;2.80;;
53261;SDS011;39658;51.090;-1.786;2023-03-05T14:52:22;6.40;;;3.00;;
53261;SDS011;39658;51.090;-1.786;2023-03-05T14:54:51;9.43;;;4.72;;
53261;SDS011;39658;51.090;-1.786;2023-03-05T14:57:20;11.70;;;3.63;;
53261;SDS011;39658;51.090;-1.786;2023-03-05T14:59:49;9.23;;;3.35;;